createdAt,value
2018-02-03T00:02:15.412Z,65.92
2018-02-03T00:04:48.908Z,65.82
2018-02-03T00:07:18.678Z,66.08
2018-02-03T00:09:47.611Z,65.93
2018-02-03T00:12:17.222Z,66.21
2018-02-03T00:14:46.421Z,66.37
2018-02-03T00:17:15.522Z,66.46
2018-02-03T00:19:48.608Z,66.44
2018-02-03T00:22:20.470Z,66.68
2018-02-03T00:24:50.586Z,66.92
2018-02-03T00:27:24.058Z,66.77
2018-02-03T00:29:53.183Z,66.81
2018-02-03T00:32:23.340Z,66.67
2018-02-03T00:34:52.235Z,66.51
2018-02-03T00:37:21.395Z,66.46
2018-02-03T00:39:50.285Z,66.47
2018-02-03T00:42:24.295Z,66.33
2018-02-03T00:44:53.396Z,66.48
2018-02-03T00:47:23.121Z,66.62
2018-02-03T00:49:56.240Z,66.64
2018-02-03T00:52:26.246Z,66.69
2018-02-03T00:54:55.203Z,66.82
2018-02-03T00:57:24.959Z,67.09
2018-02-03T00:59:54.124Z,67.35
2018-02-03T01:02:24.025Z,67.13
2018-02-03T01:04:53.137Z,67.46
2018-02-03T01:07:23.388Z,67.51
2018-02-03T01:09:53.582Z,67.68
2018-02-03T01:12:23.540Z,67.69
2018-02-03T01:14:53.858Z,68.08
2018-02-03T01:17:23.943Z,68.31
2018-02-03T01:19:54.587Z,68.69
2018-02-03T01:22:24.899Z,68.49
2018-02-03T01:24:53.787Z,68.65
2018-02-03T01:27:25.279Z,69.01
2018-02-03T01:29:54.336Z,69.26
2018-02-03T01:32:24.353Z,70.07
2018-02-03T01:34:55.122Z,69.99
2018-02-03T01:37:24.231Z,70.09
2018-02-03T01:39:53.177Z,70.46
2018-02-03T01:42:22.308Z,70.76
2018-02-03T01:44:52.168Z,70.81
2018-02-03T01:47:22.005Z,71.73
2018-02-03T01:49:52.842Z,72.35
2018-02-03T01:52:21.817Z,72.24
2018-02-03T01:54:50.830Z,72.64
2018-02-03T01:57:23.113Z,72.52
2018-02-03T01:59:52.151Z,72.90
2018-02-03T02:02:21.091Z,73.32
2018-02-03T02:04:50.182Z,73.42
2018-02-03T02:07:19.103Z,73.53
2018-02-03T02:09:48.756Z,73.68
2018-02-03T02:12:17.873Z,73.87
2018-02-03T02:14:47.723Z,74.22
2018-02-03T02:17:17.409Z,74.75
2018-02-03T02:19:50.083Z,74.61
2018-02-03T02:22:21.831Z,74.68
2018-02-03T02:24:53.500Z,74.46
2018-02-03T02:27:24.141Z,73.90
2018-02-03T02:30:00.923Z,73.55
2018-02-03T02:32:30.208Z,73.38
2018-02-03T02:34:59.973Z,73.46
2018-02-03T02:37:29.763Z,73.72
2018-02-03T02:40:00.570Z,73.47
2018-02-03T02:42:35.064Z,73.47
2018-02-03T02:45:05.112Z,73.45
2018-02-03T02:47:36.267Z,74.15
2018-02-03T02:50:07.731Z,74.31
2018-02-03T02:52:36.802Z,74.27
2018-02-03T02:55:07.742Z,74.11
2018-02-03T02:57:36.637Z,74.62
2018-02-03T03:00:08.587Z,74.97
2018-02-03T03:02:37.683Z,75.27
2018-02-03T03:05:06.788Z,75.36
2018-02-03T03:07:38.341Z,75.36
2018-02-03T03:10:07.376Z,75.44
2018-02-03T03:12:37.247Z,75.65
2018-02-03T03:15:06.172Z,75.41
2018-02-03T03:17:36.097Z,75.71
2018-02-03T03:20:05.667Z,76.00
2018-02-03T03:22:35.106Z,76.35
2018-02-03T03:25:04.671Z,76.42
2018-02-03T03:27:46.370Z,76.77
2018-02-03T03:30:16.085Z,76.83
2018-02-03T03:32:45.075Z,77.21
2018-02-03T03:35:15.257Z,76.76
2018-02-03T03:37:45.109Z,76.43
2018-02-03T03:40:14.104Z,76.42
2018-02-03T03:42:43.789Z,76.42
2018-02-03T03:45:13.729Z,76.22
2018-02-03T03:47:43.339Z,76.23
2018-02-03T03:50:12.946Z,76.02
2018-02-03T03:52:43.180Z,75.95
2018-02-03T03:55:12.161Z,75.84
2018-02-03T03:57:41.288Z,76.21
2018-02-03T04:00:11.108Z,76.60
2018-02-03T04:02:40.994Z,76.70
2018-02-03T04:05:10.269Z,76.88
2018-02-03T04:07:40.166Z,76.77
2018-02-03T04:10:09.916Z,76.94
2018-02-03T04:12:39.099Z,76.71
2018-02-03T04:15:09.339Z,76.97
2018-02-03T04:17:38.464Z,76.79
2018-02-03T04:20:08.961Z,76.65
2018-02-03T04:22:38.941Z,76.96
2018-02-03T04:25:08.177Z,76.51
2018-02-03T04:27:39.252Z,76.73
2018-02-03T04:30:09.233Z,76.79
2018-02-03T04:32:38.957Z,76.64
2018-02-03T04:35:23.436Z,76.53
2018-02-03T04:37:52.541Z,76.76
2018-02-03T04:40:29.420Z,77.15
2018-02-03T04:42:58.616Z,77.17
2018-02-03T04:45:28.132Z,77.02
2018-02-03T04:47:58.335Z,77.10
2018-02-03T04:50:27.525Z,76.88
2018-02-03T04:52:56.652Z,76.81
2018-02-03T04:55:30.709Z,76.69
2018-02-03T04:57:59.515Z,76.49
2018-02-03T05:00:28.375Z,76.41
2018-02-03T05:02:58.560Z,76.19
2018-02-03T05:05:27.516Z,76.10
2018-02-03T05:07:58.248Z,76.22
2018-02-03T05:10:27.238Z,76.24
2018-02-03T05:12:56.239Z,76.41
2018-02-03T05:15:26.024Z,76.84
2018-02-03T05:17:55.895Z,76.99
2018-02-03T05:20:27.513Z,76.86
2018-02-03T05:22:58.252Z,77.31
2018-02-03T05:25:27.348Z,77.93
2018-02-03T05:27:56.595Z,77.22
2018-02-03T05:30:27.497Z,77.17
2018-02-03T05:32:56.586Z,77.02
2018-02-03T05:35:25.580Z,76.90
2018-02-03T05:37:54.987Z,76.96
2018-02-03T05:40:24.388Z,76.75
2018-02-03T05:42:53.482Z,76.74
2018-02-03T05:45:26.168Z,76.65
2018-02-03T05:47:56.897Z,76.46
2018-02-03T05:50:25.933Z,77.00
2018-02-03T05:52:56.960Z,76.75
2018-02-03T05:55:26.124Z,76.47
2018-02-03T05:57:56.611Z,76.59
2018-02-03T06:00:26.471Z,76.70
2018-02-03T06:02:58.310Z,76.57
2018-02-03T06:05:27.685Z,76.53
2018-02-03T06:07:56.730Z,76.48
2018-02-03T06:10:25.669Z,76.41
2018-02-03T06:12:55.541Z,76.28
2018-02-03T06:15:25.485Z,76.51
2018-02-03T06:17:54.654Z,76.54
2018-02-03T06:20:24.458Z,76.13
2018-02-03T06:22:53.561Z,75.70
2018-02-03T06:25:22.739Z,75.53
2018-02-03T06:27:51.858Z,75.22
2018-02-03T06:30:21.669Z,74.54
2018-02-03T06:32:50.765Z,74.21
2018-02-03T06:35:19.893Z,74.08
2018-02-03T06:37:49.398Z,74.00
2018-02-03T06:40:19.825Z,73.64
2018-02-03T06:42:50.533Z,73.45
2018-02-03T06:45:20.084Z,73.63
2018-02-03T06:47:49.164Z,73.00
2018-02-03T06:50:18.259Z,72.58
2018-02-03T06:52:47.222Z,73.13
2018-02-03T06:55:17.442Z,74.35
2018-02-03T06:57:46.538Z,73.90
2018-02-03T07:00:15.782Z,74.02
2018-02-03T07:02:45.551Z,73.74
2018-02-03T07:05:15.469Z,74.03
2018-02-03T07:07:45.356Z,73.49
2018-02-03T07:10:15.297Z,72.93
2018-02-03T07:12:44.497Z,72.49
2018-02-03T07:15:13.696Z,71.19
2018-02-03T07:17:42.687Z,71.07
2018-02-03T07:20:11.787Z,71.18
2018-02-03T07:22:44.670Z,71.15
2018-02-03T07:25:17.200Z,71.22
2018-02-03T07:27:47.064Z,71.40
2018-02-03T07:30:17.010Z,71.48
2018-02-03T07:32:46.959Z,71.47
2018-02-03T07:35:16.800Z,72.07
2018-02-03T07:37:46.031Z,72.44
2018-02-03T07:40:20.841Z,72.54
2018-02-03T07:42:50.020Z,72.75
2018-02-03T07:45:19.239Z,72.74
2018-02-03T07:47:50.095Z,72.38
2018-02-03T07:50:19.920Z,72.10
2018-02-03T07:52:48.993Z,71.84
2018-02-03T07:55:18.908Z,72.50
2018-02-03T07:57:49.398Z,72.60
2018-02-03T08:00:22.115Z,73.14
2018-02-03T08:02:51.210Z,72.74
2018-02-03T08:05:21.059Z,72.36
2018-02-03T08:07:51.968Z,72.12
2018-02-03T08:10:24.368Z,71.51
2018-02-03T08:12:55.089Z,71.51
2018-02-03T08:15:24.699Z,71.20
2018-02-03T08:17:53.708Z,71.02
2018-02-03T08:20:22.969Z,70.89
2018-02-03T08:22:52.216Z,71.63
2018-02-03T08:25:22.526Z,72.31
2018-02-03T08:27:51.743Z,72.42
2018-02-03T08:30:21.601Z,71.81
2018-02-03T08:32:50.637Z,71.07
2018-02-03T08:35:20.566Z,70.03
2018-02-03T08:37:50.523Z,68.80
2018-02-03T08:40:19.496Z,67.73
2018-02-03T08:42:51.131Z,66.92
2018-02-03T08:45:20.086Z,65.51
2018-02-03T08:47:50.033Z,64.32
2018-02-03T08:50:21.860Z,64.06
2018-02-03T08:52:51.570Z,63.77
2018-02-03T08:55:20.777Z,63.48
2018-02-03T08:57:50.719Z,64.01
2018-02-03T09:00:19.785Z,64.08
2018-02-03T09:02:49.699Z,63.66
2018-02-03T09:05:23.301Z,63.36
2018-02-03T09:07:52.426Z,62.98
2018-02-03T09:10:21.629Z,62.47
2018-02-03T09:12:51.564Z,62.25
2018-02-03T09:15:20.535Z,61.64
2018-02-03T09:17:49.486Z,61.38
2018-02-03T09:20:18.924Z,61.06
2018-02-03T09:22:49.737Z,60.61
2018-02-03T09:25:22.209Z,60.66
2018-02-03T09:27:51.514Z,60.87
2018-02-03T09:30:21.429Z,60.70
2018-02-03T09:32:54.923Z,61.41
2018-02-03T09:35:24.244Z,61.74
2018-02-03T09:37:53.533Z,62.38
2018-02-03T09:40:26.007Z,62.46
2018-02-03T09:42:55.207Z,62.67
2018-02-03T09:45:25.632Z,62.79
2018-02-03T09:47:56.470Z,63.00
2018-02-03T09:50:25.569Z,63.19
2018-02-03T09:52:54.671Z,62.88
2018-02-03T09:55:26.438Z,62.88
2018-02-03T09:57:55.418Z,62.67
2018-02-03T10:00:25.027Z,62.60
2018-02-03T10:02:54.226Z,62.01
2018-02-03T10:05:23.317Z,61.54
2018-02-03T10:07:52.317Z,61.42
2018-02-03T10:10:21.436Z,61.19
2018-02-03T10:12:50.306Z,61.19
2018-02-03T10:15:21.424Z,60.84
2018-02-03T10:17:54.637Z,60.32
2018-02-03T10:20:24.558Z,60.25
2018-02-03T10:22:58.696Z,59.99
2018-02-03T10:25:27.865Z,59.69
2018-02-03T10:27:56.958Z,59.69
2018-02-03T10:30:26.165Z,59.17
2018-02-03T10:32:55.261Z,59.65
2018-02-03T10:35:28.187Z,59.96
2018-02-03T10:37:57.134Z,59.49
2018-02-03T10:40:26.538Z,59.71
2018-02-03T10:42:55.940Z,60.50
2018-02-03T10:45:24.937Z,60.63
2018-02-03T10:47:54.084Z,60.43
2018-02-03T10:50:24.185Z,60.61
2018-02-03T10:52:54.009Z,60.46
2018-02-03T10:55:23.809Z,60.69
2018-02-03T10:57:58.132Z,60.32
2018-02-03T11:00:33.544Z,60.13
2018-02-03T11:03:05.614Z,59.96
2018-02-03T11:05:34.662Z,59.87
2018-02-03T11:08:03.687Z,60.23
2018-02-03T11:10:33.412Z,60.34
2018-02-03T11:13:02.333Z,60.22
2018-02-03T11:15:32.207Z,60.47
2018-02-03T11:18:01.521Z,61.19
2018-02-03T11:20:31.541Z,61.28
2018-02-03T11:23:01.431Z,61.68
2018-02-03T11:25:31.601Z,61.79
2018-02-03T11:28:01.180Z,62.38
2018-02-03T11:30:34.287Z,62.59
2018-02-03T11:33:03.273Z,62.64
2018-02-03T11:35:32.387Z,62.65
2018-02-03T11:38:01.451Z,62.79
2018-02-03T11:40:30.967Z,62.67
2018-02-03T11:43:01.549Z,62.81
2018-02-03T11:45:31.341Z,63.38
2018-02-03T11:48:00.435Z,63.61
2018-02-03T11:50:30.306Z,64.28
2018-02-03T11:53:01.949Z,64.37
2018-02-03T11:55:30.898Z,64.40
2018-02-03T11:58:00.008Z,64.68
2018-02-03T12:00:29.836Z,65.48
2018-02-03T12:02:59.388Z,65.88
2018-02-03T12:05:30.350Z,66.63
2018-02-03T12:08:00.169Z,68.04
2018-02-03T12:10:30.090Z,68.20
2018-02-03T12:13:01.320Z,68.17
2018-02-03T12:15:30.295Z,68.32
2018-02-03T12:18:00.820Z,68.32
2018-02-03T12:20:29.800Z,68.30
2018-02-03T12:22:59.764Z,68.58
2018-02-03T12:25:28.806Z,68.64
2018-02-03T12:27:58.614Z,68.58
2018-02-03T12:30:27.672Z,68.43
2018-02-03T12:32:57.634Z,68.60
2018-02-03T12:35:28.602Z,68.68
2018-02-03T12:37:57.799Z,68.51
2018-02-03T12:40:26.891Z,68.45
2018-02-03T12:42:57.221Z,68.19
2018-02-03T12:45:27.079Z,68.73
2018-02-03T12:47:56.668Z,68.96
2018-02-03T12:50:27.536Z,68.92
2018-02-03T12:52:56.620Z,68.95
2018-02-03T12:55:26.795Z,69.39
2018-02-03T12:57:55.998Z,69.29
2018-02-03T13:00:26.727Z,69.43
2018-02-03T13:02:56.550Z,69.73
2018-02-03T13:05:25.886Z,69.72
2018-02-03T13:07:56.065Z,69.63
2018-02-03T13:10:26.156Z,69.88
2018-02-03T13:12:55.212Z,70.51
2018-02-03T13:15:25.126Z,70.58
2018-02-03T13:17:55.145Z,70.75
2018-02-03T13:20:25.024Z,70.89
2018-02-03T13:22:55.119Z,70.72
2018-02-03T13:25:26.534Z,70.45
2018-02-03T13:27:55.589Z,70.19
2018-02-03T13:30:24.690Z,69.91
2018-02-03T13:32:54.778Z,70.12
2018-02-03T13:35:24.724Z,70.32
2018-02-03T13:37:53.718Z,70.13
2018-02-03T13:40:23.736Z,70.28
2018-02-03T13:42:53.036Z,70.57
2018-02-03T13:45:22.413Z,70.84
2018-02-03T13:47:53.278Z,70.56
2018-02-03T13:50:22.524Z,70.63
2018-02-03T13:52:52.569Z,70.49
2018-02-03T13:55:26.000Z,70.55
2018-02-03T13:57:55.128Z,70.66
2018-02-03T14:00:25.129Z,70.62
2018-02-03T14:02:55.193Z,71.25
2018-02-03T14:05:24.327Z,71.17
2018-02-03T14:07:54.888Z,70.65
2018-02-03T14:10:25.179Z,70.77
2018-02-03T14:12:56.112Z,70.81
2018-02-03T14:15:27.108Z,70.67
2018-02-03T14:17:58.030Z,70.62
2018-02-03T14:20:27.020Z,70.54
2018-02-03T14:23:00.388Z,70.49
2018-02-03T14:25:29.792Z,71.01
2018-02-03T14:27:59.666Z,70.87
2018-02-03T14:30:29.805Z,71.14
2018-02-03T14:33:11.589Z,71.26
2018-02-03T14:35:41.872Z,71.58
2018-02-03T14:38:11.757Z,71.94
2018-02-03T14:40:43.835Z,72.31
2018-02-03T14:43:13.000Z,72.51
2018-02-03T14:45:42.986Z,72.65
2018-02-03T14:48:11.986Z,72.66
2018-02-03T14:50:42.278Z,72.68
2018-02-03T14:53:14.734Z,72.97
2018-02-03T14:55:43.835Z,73.03
2018-02-03T14:58:15.859Z,73.04
2018-02-03T15:00:45.928Z,73.14
2018-02-03T15:03:14.918Z,73.27
2018-02-03T15:05:44.208Z,73.22
2018-02-03T15:08:13.223Z,73.29
2018-02-03T15:10:43.330Z,73.21
2018-02-03T15:13:12.283Z,73.00
2018-02-03T15:15:41.377Z,72.85
2018-02-03T15:18:10.963Z,72.66
2018-02-03T15:20:40.189Z,72.55
2018-02-03T15:23:09.043Z,72.83
2018-02-03T15:25:37.914Z,72.88
2018-02-03T15:28:08.156Z,72.81
2018-02-03T15:30:39.112Z,72.76
2018-02-03T15:33:09.771Z,72.81
2018-02-03T15:35:39.707Z,72.75
2018-02-03T15:38:08.803Z,72.87
2018-02-03T15:40:37.967Z,72.83
2018-02-03T15:43:13.858Z,72.75
2018-02-03T15:45:43.044Z,72.79
2018-02-03T15:48:13.905Z,73.22
2018-02-03T15:50:43.981Z,73.12
2018-02-03T15:53:13.526Z,72.97
2018-02-03T15:55:44.356Z,72.95
2018-02-03T15:58:13.496Z,72.81
2018-02-03T16:00:43.271Z,72.87
2018-02-03T16:03:14.061Z,73.06
2018-02-03T16:05:44.590Z,73.37
2018-02-03T16:08:13.726Z,73.36
2018-02-03T16:10:42.824Z,73.16
2018-02-03T16:13:13.176Z,73.12
2018-02-03T16:15:42.615Z,72.95
2018-02-03T16:18:12.571Z,72.76
2018-02-03T16:20:43.137Z,72.94
2018-02-03T16:25:46.515Z,73.06
2018-02-03T16:28:16.635Z,73.38
2018-02-03T16:30:45.954Z,72.92
2018-02-03T16:33:19.778Z,72.98
2018-02-03T16:35:48.738Z,73.32
2018-02-03T16:38:17.834Z,73.46
2018-02-03T16:40:47.659Z,73.28
2018-02-03T16:43:17.270Z,73.34
2018-02-03T16:45:47.681Z,73.38
2018-02-03T16:48:20.296Z,73.20
2018-02-03T16:50:50.741Z,73.10
2018-02-03T16:53:19.958Z,72.89
2018-02-03T16:55:49.524Z,73.14
2018-02-03T16:58:18.730Z,73.05
2018-02-03T17:00:47.862Z,72.93
2018-02-03T17:03:18.732Z,72.71
2018-02-03T17:05:49.571Z,72.81
2018-02-03T17:08:18.496Z,72.70
2018-02-03T17:10:50.413Z,72.82
2018-02-03T17:13:20.300Z,72.72
2018-02-03T17:15:49.377Z,72.74
2018-02-03T17:18:20.942Z,72.68
2018-02-03T17:20:50.241Z,72.67
2018-02-03T17:23:19.360Z,72.42
2018-02-03T17:25:50.291Z,72.26
2018-02-03T17:28:19.284Z,72.40
2018-02-03T17:30:48.951Z,72.52
2018-02-03T17:33:19.216Z,72.35
2018-02-03T17:35:49.026Z,72.06
2018-02-03T17:38:24.900Z,71.65
2018-02-03T17:40:54.173Z,71.70
2018-02-03T17:43:23.270Z,71.65
2018-02-03T17:45:57.840Z,71.46
2018-02-03T17:48:28.700Z,71.53
2018-02-03T17:50:58.100Z,71.64
2018-02-03T17:53:28.163Z,71.31
2018-02-03T17:56:03.725Z,71.45
2018-02-03T17:58:37.164Z,71.40
2018-02-03T18:01:06.466Z,71.04
2018-02-03T18:03:35.757Z,71.04
2018-02-03T18:06:06.987Z,71.03
2018-02-03T18:08:35.959Z,71.08
2018-02-03T18:11:04.834Z,70.56
2018-02-03T18:13:34.039Z,70.46
2018-02-03T18:16:03.327Z,70.27
2018-02-03T18:18:32.522Z,70.22
2018-02-03T18:21:05.079Z,70.67
2018-02-03T18:23:34.997Z,71.15
2018-02-03T18:26:04.267Z,71.16
2018-02-03T18:28:41.841Z,71.26
2018-02-03T18:31:10.762Z,71.17
2018-02-03T18:33:40.514Z,70.92
2018-02-03T18:36:11.071Z,71.32
2018-02-03T18:38:40.011Z,71.82
2018-02-03T18:41:08.898Z,72.32
2018-02-03T18:43:38.790Z,72.29
2018-02-03T18:46:07.690Z,72.13
2018-02-03T18:48:36.681Z,72.31
2018-02-03T18:51:09.245Z,72.18
2018-02-03T18:53:38.080Z,72.22
2018-02-03T18:56:06.906Z,72.80
2018-02-03T18:58:37.475Z,72.93
2018-02-03T19:01:09.454Z,72.86
2018-02-03T19:03:39.480Z,72.97
2018-02-03T19:06:08.783Z,72.92
2018-02-03T19:08:39.325Z,72.32
2018-02-03T19:11:09.113Z,72.20
2018-02-03T19:13:38.214Z,72.46
2018-02-03T19:16:08.133Z,72.40
2018-02-03T19:18:38.098Z,72.17
2018-02-03T19:21:08.368Z,71.85
2018-02-03T19:23:41.258Z,71.58
2018-02-03T19:26:11.204Z,71.49
2018-02-03T19:28:40.108Z,71.57
2018-02-03T19:31:10.080Z,71.83
2018-02-03T19:33:39.177Z,71.89
2018-02-03T19:36:12.503Z,71.69
2018-02-03T19:38:41.459Z,71.41
2018-02-03T19:41:12.522Z,71.53
2018-02-03T19:43:44.071Z,71.42
2018-02-03T19:46:14.662Z,71.31
2018-02-03T19:48:43.861Z,70.86
2018-02-03T19:51:15.521Z,71.44
2018-02-03T19:53:45.310Z,71.48
2018-02-03T19:56:17.306Z,71.16
2018-02-03T19:58:46.755Z,70.51
2018-02-03T20:01:15.964Z,70.28
2018-02-03T20:03:45.891Z,70.33
2018-02-03T20:06:15.765Z,70.21
2018-02-03T20:08:47.880Z,70.31
2018-02-03T20:11:17.091Z,70.23
2018-02-03T20:13:49.154Z,70.49
2018-02-03T20:16:19.145Z,70.68
2018-02-03T20:18:48.376Z,71.06
2018-02-03T20:21:21.889Z,71.04
2018-02-03T20:23:51.895Z,70.97
2018-02-03T20:26:22.934Z,70.59
2018-02-03T20:28:54.781Z,70.52
2018-02-03T20:31:23.875Z,70.41
2018-02-03T20:33:55.075Z,70.45
2018-02-03T20:36:24.495Z,70.71
2018-02-03T20:38:53.785Z,71.04
2018-02-03T20:41:23.020Z,71.45
2018-02-03T20:43:52.288Z,71.52
2018-02-03T20:46:23.022Z,71.55
2018-02-03T20:48:52.528Z,71.76
2018-02-03T20:51:24.287Z,71.77
2018-02-03T20:53:54.614Z,71.92
2018-02-03T20:56:24.165Z,72.08
2018-02-03T20:58:55.976Z,71.41
2018-02-03T21:01:27.581Z,71.23
2018-02-03T21:03:59.351Z,71.39
2018-02-03T21:06:29.117Z,71.75
2018-02-03T21:08:58.903Z,71.14
2018-02-03T21:11:31.401Z,71.03
2018-02-03T21:14:00.480Z,70.86
2018-02-03T21:16:29.536Z,70.69
2018-02-03T21:18:58.957Z,70.54
2018-02-03T21:21:28.061Z,70.27
2018-02-03T21:24:01.095Z,70.51
2018-02-03T21:26:30.160Z,70.38
2018-02-03T21:28:59.154Z,70.65
2018-02-03T21:31:30.615Z,70.70
2018-02-03T21:34:00.419Z,70.49
2018-02-03T21:36:38.101Z,70.59
2018-02-03T21:39:13.084Z,70.50
2018-02-03T21:41:42.346Z,70.16
2018-02-03T21:44:12.064Z,70.17
2018-02-03T21:46:43.819Z,70.08
2018-02-03T21:49:12.915Z,70.10
2018-02-03T21:51:42.195Z,69.96
2018-02-03T21:54:11.344Z,70.25
2018-02-03T21:56:40.327Z,70.58
2018-02-03T21:59:11.053Z,70.24
2018-02-03T22:01:41.783Z,70.09
2018-02-03T22:04:11.812Z,69.79
2018-02-03T22:06:40.768Z,69.58
2018-02-03T22:09:10.540Z,69.92
2018-02-03T22:11:39.702Z,69.54
2018-02-03T22:14:09.594Z,69.87
2018-02-03T22:16:40.654Z,70.31
2018-02-03T22:19:11.692Z,70.04
2018-02-03T22:21:40.827Z,70.19
2018-02-03T22:24:11.503Z,70.10
2018-02-03T22:26:41.453Z,69.94
2018-02-03T22:29:10.542Z,69.96
2018-02-03T22:31:43.154Z,69.83
2018-02-03T22:34:12.317Z,69.70
2018-02-03T22:36:41.310Z,69.68
2018-02-03T22:39:13.990Z,69.83
2018-02-03T22:41:44.801Z,69.77
2018-02-03T22:44:13.720Z,69.52
2018-02-03T22:46:42.693Z,69.62
2018-02-03T22:49:12.063Z,69.76
2018-02-03T22:51:41.826Z,69.80
2018-02-03T22:54:13.730Z,70.06
2018-02-03T22:56:42.692Z,70.04
2018-02-03T22:59:11.961Z,70.03
2018-02-03T23:01:41.795Z,70.57
2018-02-03T23:04:11.405Z,70.84
2018-02-03T23:06:40.739Z,71.64
2018-02-03T23:09:09.801Z,71.38
2018-02-03T23:11:40.785Z,71.12
2018-02-03T23:14:09.734Z,71.31
2018-02-03T23:16:40.779Z,71.07
2018-02-03T23:19:11.317Z,71.07
2018-02-03T23:21:48.084Z,71.60
2018-02-03T23:24:17.193Z,71.65
2018-02-03T23:26:50.474Z,71.19
2018-02-03T23:29:19.569Z,71.33
2018-02-03T23:31:48.665Z,71.42
2018-02-03T23:34:20.197Z,71.35
2018-02-03T23:36:50.033Z,71.63
2018-02-03T23:39:19.129Z,71.77
2018-02-03T23:41:49.658Z,71.51
2018-02-03T23:44:18.642Z,70.81
2018-02-03T23:46:47.656Z,70.34
2018-02-03T23:49:18.640Z,69.90
2018-02-03T23:51:47.684Z,69.51
2018-02-03T23:54:17.905Z,69.39
2018-02-03T23:56:53.438Z,69.78
2018-02-03T23:59:22.551Z,69.18
